Decoded Metar for KBLV (BELLEVILLE in IL, USA) (IATA:BLV) | Meteo·Mobile Aviation Weather
aviador You're here:

KBLV Decoded Metar

BELLEVILLE in IL, USA
Report Time2019-02-22 19:56:00
UTC Time2019-02-22 20:12:37
Flight Rules vfr VFR
Wind070° at 06 kt
W.Decomp.*RWY 14: 1.9 kt HW 5.7 kt LCW
W.Rank070° ranks 33
Current wind is above 070° avg. (4.9)
Visibility9999 m
Phenomena:N/A
Clouds:Overcast 046 Hf
Expected CloudBase > 2,800 ft AGL from Temp-Dew spread
Ceiling4,600 ft
Temp05°C (ISA -9)
Dew Point-2°C (61% RH)
AAT0.6°C
QNH1024 hPa
Density Alt-945 ft
Elevation453 ft
Report Wrong Elevation
Raw Report
KBLV 221956Z AUTO 07006KT 10SM OVC046 05/M02 A3024 RMK AO2 SLP247
T00451019 $=

Extra information for KBLV:More info

Metar Taf Metar & Taf Last 4 Metars F.Rules Stats Wind Profile Meteogram Temp Stats Airport Information Weather charts Add Link Nearby VenuesMetar ALERT Operation Metar Decoded Social comments

AIRNAV info for KBLV